<?xml version="1.0" encoding="UTF-8" standalone="no" ?>
<gpx xmlns="http://www.topografix.com/GPX/1/1" xmlns:xsi="http://www.w3.org/2001/XMLSchema-instance" xsi:schemaLocation="http://www.topografix.com/GPX/1/1 http://www.topografix.com/GPX/1/1/gpx.xsd" version="1.1" creator="VisuGPX - https://www.visugpx.com">
  <metadata>
    <name>parcours vtthn.com</name>
    <desc><![CDATA[Rassemblement annuel vtthn.com]]></desc>
  </metadata>
  <trk>
    <name><![CDATA[Untitled]]></name>
    <trkseg>
      <trkpt lat="49.40922" lon="0.9916">
        <ele>156</ele>
        <time>2013-03-24T08:55:35Z</time>
      </trkpt>
      <trkpt lat="49.4093" lon="0.99148">
        <ele>156</ele>
        <time>2013-03-24T08:55:50Z</time>
      </trkpt>
      <trkpt lat="49.40916" lon="0.9912">
        <ele>156</ele>
        <time>2013-03-24T08:56:01Z</time>
      </trkpt>
      <trkpt lat="49.40939" lon="0.99064">
        <ele>156</ele>
        <time>2013-03-24T08:56:15Z</time>
      </trkpt>
      <trkpt lat="49.4127" lon="0.98554">
        <ele>158.19999694824</ele>
        <time>2013-03-24T08:58:07Z</time>
      </trkpt>
      <trkpt lat="49.41419" lon="0.98306">
        <ele>157</ele>
        <time>2013-03-24T08:58:57Z</time>
      </trkpt>
      <trkpt lat="49.41424" lon="0.983">
        <ele>156.19999694824</ele>
        <time>2013-03-24T08:58:59Z</time>
      </trkpt>
      <trkpt lat="49.41438" lon="0.98277">
        <ele>156.19999694824</ele>
        <time>2013-03-24T08:59:08Z</time>
      </trkpt>
      <trkpt lat="49.41442" lon="0.98272">
        <ele>156.19999694824</ele>
        <time>2013-03-24T08:59:12Z</time>
      </trkpt>
      <trkpt lat="49.41453" lon="0.98271">
        <ele>156.19999694824</ele>
        <time>2013-03-24T08:59:26Z</time>
      </trkpt>
      <trkpt lat="49.41511" lon="0.98185">
        <ele>156.19999694824</ele>
        <time>2013-03-24T09:00:15Z</time>
      </trkpt>
      <trkpt lat="49.41604" lon="0.98021">
        <ele>151</ele>
        <time>2013-03-24T09:00:42Z</time>
      </trkpt>
      <trkpt lat="49.41612" lon="0.98006">
        <ele>150</ele>
        <time>2013-03-24T09:00:44Z</time>
      </trkpt>
      <trkpt lat="49.41621" lon="0.9799">
        <ele>149</ele>
        <time>2013-03-24T09:00:46Z</time>
      </trkpt>
      <trkpt lat="49.4163" lon="0.97974">
        <ele>148.19999694824</ele>
        <time>2013-03-24T09:00:48Z</time>
      </trkpt>
      <trkpt lat="49.41663" lon="0.97924">
        <ele>144.19999694824</ele>
        <time>2013-03-24T09:00:54Z</time>
      </trkpt>
      <trkpt lat="49.41711" lon="0.97857">
        <ele>138</ele>
        <time>2013-03-24T09:01:02Z</time>
      </trkpt>
      <trkpt lat="49.41736" lon="0.9782">
        <ele>134.80000305176</ele>
        <time>2013-03-24T09:01:06Z</time>
      </trkpt>
      <trkpt lat="49.4175" lon="0.978">
        <ele>132.60000610352</ele>
        <time>2013-03-24T09:01:08Z</time>
      </trkpt>
      <trkpt lat="49.41764" lon="0.9778">
        <ele>130.80000305176</ele>
        <time>2013-03-24T09:01:10Z</time>
      </trkpt>
      <trkpt lat="49.41825" lon="0.97696">
        <ele>120.40000152588</ele>
        <time>2013-03-24T09:01:20Z</time>
      </trkpt>
      <trkpt lat="49.41861" lon="0.9765">
        <ele>111.40000152588</ele>
        <time>2013-03-24T09:01:27Z</time>
      </trkpt>
      <trkpt lat="49.41869" lon="0.97638">
        <ele>109</ele>
        <time>2013-03-24T09:01:29Z</time>
      </trkpt>
      <trkpt lat="49.42004" lon="0.97416">
        <ele>77.400001525879</ele>
        <time>2013-03-24T09:02:07Z</time>
      </trkpt>
      <trkpt lat="49.42029" lon="0.97377">
        <ele>70</ele>
        <time>2013-03-24T09:02:17Z</time>
      </trkpt>
      <trkpt lat="49.42018" lon="0.97302">
        <ele>67</ele>
        <time>2013-03-24T09:02:45Z</time>
      </trkpt>
      <trkpt lat="49.41963" lon="0.97312">
        <ele>69.400001525879</ele>
        <time>2013-03-24T09:03:21Z</time>
      </trkpt>
      <trkpt lat="49.41731" lon="0.97308">
        <ele>83.400001525879</ele>
        <time>2013-03-24T09:05:21Z</time>
      </trkpt>
      <trkpt lat="49.41691" lon="0.97238">
        <ele>90.400001525879</ele>
        <time>2013-03-24T09:06:04Z</time>
      </trkpt>
      <trkpt lat="49.41648" lon="0.97214">
        <ele>98.400001525879</ele>
        <time>2013-03-24T09:08:12Z</time>
      </trkpt>
      <trkpt lat="49.41627" lon="0.97196">
        <ele>102</ele>
        <time>2013-03-24T09:08:32Z</time>
      </trkpt>
      <trkpt lat="49.41573" lon="0.97188">
        <ele>113.40000152588</ele>
        <time>2013-03-24T09:09:53Z</time>
      </trkpt>
      <trkpt lat="49.41549" lon="0.97153">
        <ele>115.40000152588</ele>
        <time>2013-03-24T09:10:13Z</time>
      </trkpt>
      <trkpt lat="49.41542" lon="0.97114">
        <ele>117.40000152588</ele>
        <time>2013-03-24T09:10:28Z</time>
      </trkpt>
      <trkpt lat="49.41543" lon="0.96986">
        <ele>112.80000305176</ele>
        <time>2013-03-24T09:10:53Z</time>
      </trkpt>
      <trkpt lat="49.41497" lon="0.96881">
        <ele>114.80000305176</ele>
        <time>2013-03-24T09:11:19Z</time>
      </trkpt>
      <trkpt lat="49.41475" lon="0.96858">
        <ele>114.80000305176</ele>
        <time>2013-03-24T09:11:31Z</time>
      </trkpt>
      <trkpt lat="49.4147" lon="0.96753">
        <ele>114.80000305176</ele>
        <time>2013-03-24T09:11:51Z</time>
      </trkpt>
      <trkpt lat="49.41445" lon="0.96696">
        <ele>116.80000305176</ele>
        <time>2013-03-24T09:12:15Z</time>
      </trkpt>
      <trkpt lat="49.41425" lon="0.96602">
        <ele>116.80000305176</ele>
        <time>2013-03-24T09:12:35Z</time>
      </trkpt>
      <trkpt lat="49.41389" lon="0.96527">
        <ele>119</ele>
        <time>2013-03-24T09:13:06Z</time>
      </trkpt>
      <trkpt lat="49.41385" lon="0.96401">
        <ele>119</ele>
        <time>2013-03-24T09:13:32Z</time>
      </trkpt>
      <trkpt lat="49.41376" lon="0.96308">
        <ele>116.40000152588</ele>
        <time>2013-03-24T09:13:48Z</time>
      </trkpt>
      <trkpt lat="49.41295" lon="0.96327">
        <ele>125</ele>
        <time>2013-03-24T09:14:57Z</time>
      </trkpt>
      <trkpt lat="49.41259" lon="0.96354">
        <ele>129</ele>
        <time>2013-03-24T09:15:30Z</time>
      </trkpt>
      <trkpt lat="49.412" lon="0.96462">
        <ele>135</ele>
        <time>2013-03-24T09:16:36Z</time>
      </trkpt>
      <trkpt lat="49.41177" lon="0.9649">
        <ele>136.80000305176</ele>
        <time>2013-03-24T09:16:54Z</time>
      </trkpt>
      <trkpt lat="49.41117" lon="0.96594">
        <ele>141.19999694824</ele>
        <time>2013-03-24T09:17:51Z</time>
      </trkpt>
      <trkpt lat="49.41081" lon="0.96651">
        <ele>141.19999694824</ele>
        <time>2013-03-24T09:18:13Z</time>
      </trkpt>
      <trkpt lat="49.40986" lon="0.96743">
        <ele>141.19999694824</ele>
        <time>2013-03-24T09:19:02Z</time>
      </trkpt>
      <trkpt lat="49.40978" lon="0.96749">
        <ele>143.19999694824</ele>
        <time>2013-03-24T09:19:06Z</time>
      </trkpt>
      <trkpt lat="49.40968" lon="0.96753">
        <ele>143.19999694824</ele>
        <time>2013-03-24T09:19:12Z</time>
      </trkpt>
      <trkpt lat="49.40936" lon="0.96753">
        <ele>143.19999694824</ele>
        <time>2013-03-24T09:19:30Z</time>
      </trkpt>
      <trkpt lat="49.40915" lon="0.96771">
        <ele>143.19999694824</ele>
        <time>2013-03-24T09:19:46Z</time>
      </trkpt>
      <trkpt lat="49.4091" lon="0.96773">
        <ele>142</ele>
        <time>2013-03-24T09:19:52Z</time>
      </trkpt>
      <trkpt lat="49.40908" lon="0.96772">
        <ele>142.60000610352</ele>
        <time>2013-03-24T09:20:01Z</time>
      </trkpt>
      <trkpt lat="49.40901" lon="0.96752">
        <ele>142.60000610352</ele>
        <time>2013-03-24T09:20:14Z</time>
      </trkpt>
      <trkpt lat="49.40879" lon="0.96749">
        <ele>142.60000610352</ele>
        <time>2013-03-24T09:20:22Z</time>
      </trkpt>
      <trkpt lat="49.40818" lon="0.96715">
        <ele>140.60000610352</ele>
        <time>2013-03-24T09:20:45Z</time>
      </trkpt>
      <trkpt lat="49.40793" lon="0.96713">
        <ele>138.19999694824</ele>
        <time>2013-03-24T09:20:52Z</time>
      </trkpt>
      <trkpt lat="49.40759" lon="0.96703">
        <ele>135.19999694824</ele>
        <time>2013-03-24T09:20:59Z</time>
      </trkpt>
      <trkpt lat="49.40724" lon="0.96679">
        <ele>130</ele>
        <time>2013-03-24T09:21:07Z</time>
      </trkpt>
      <trkpt lat="49.40632" lon="0.96612">
        <ele>130.60000610352</ele>
        <time>2013-03-24T09:21:58Z</time>
      </trkpt>
      <trkpt lat="49.40564" lon="0.96603">
        <ele>136.19999694824</ele>
        <time>2013-03-24T09:22:48Z</time>
      </trkpt>
      <trkpt lat="49.40551" lon="0.96601">
        <ele>136.19999694824</ele>
        <time>2013-03-24T09:22:55Z</time>
      </trkpt>
      <trkpt lat="49.40443" lon="0.96479">
        <ele>136.19999694824</ele>
        <time>2013-03-24T09:23:59Z</time>
      </trkpt>
      <trkpt lat="49.40419" lon="0.9642">
        <ele>136.19999694824</ele>
        <time>2013-03-24T09:24:36Z</time>
      </trkpt>
      <trkpt lat="49.40437" lon="0.96315">
        <ele>136.19999694824</ele>
        <time>2013-03-24T09:25:09Z</time>
      </trkpt>
      <trkpt lat="49.40433" lon="0.96278">
        <ele>136.19999694824</ele>
        <time>2013-03-24T09:25:20Z</time>
      </trkpt>
      <trkpt lat="49.40197" lon="0.95858">
        <ele>113.40000152588</ele>
        <time>2013-03-24T09:27:44Z</time>
      </trkpt>
      <trkpt lat="49.40189" lon="0.95827">
        <ele>112.80000305176</ele>
        <time>2013-03-24T09:27:48Z</time>
      </trkpt>
      <trkpt lat="49.40189" lon="0.95659">
        <ele>106.80000305176</ele>
        <time>2013-03-24T09:28:09Z</time>
      </trkpt>
      <trkpt lat="49.4021" lon="0.95573">
        <ele>103</ele>
        <time>2013-03-24T09:28:23Z</time>
      </trkpt>
      <trkpt lat="49.40177" lon="0.95513">
        <ele>105.40000152588</ele>
        <time>2013-03-24T09:28:54Z</time>
      </trkpt>
      <trkpt lat="49.40178" lon="0.95505">
        <ele>105.40000152588</ele>
        <time>2013-03-24T09:28:57Z</time>
      </trkpt>
      <trkpt lat="49.40211" lon="0.95411">
        <ele>107.40000152588</ele>
        <time>2013-03-24T09:29:40Z</time>
      </trkpt>
      <trkpt lat="49.40251" lon="0.95361">
        <ele>107</ele>
        <time>2013-03-24T09:29:51Z</time>
      </trkpt>
      <trkpt lat="49.40255" lon="0.95355">
        <ele>106.40000152588</ele>
        <time>2013-03-24T09:29:52Z</time>
      </trkpt>
      <trkpt lat="49.4028" lon="0.95285">
        <ele>101.80000305176</ele>
        <time>2013-03-24T09:30:02Z</time>
      </trkpt>
      <trkpt lat="49.40287" lon="0.95258">
        <ele>100</ele>
        <time>2013-03-24T09:30:05Z</time>
      </trkpt>
      <trkpt lat="49.40291" lon="0.95238">
        <ele>99.400001525879</ele>
        <time>2013-03-24T09:30:07Z</time>
      </trkpt>
      <trkpt lat="49.40296" lon="0.95216">
        <ele>98.400001525879</ele>
        <time>2013-03-24T09:30:09Z</time>
      </trkpt>
      <trkpt lat="49.40351" lon="0.95018">
        <ele>85.800003051758</ele>
        <time>2013-03-24T09:30:35Z</time>
      </trkpt>
      <trkpt lat="49.40331" lon="0.94903">
        <ele>83</ele>
        <time>2013-03-24T09:30:59Z</time>
      </trkpt>
      <trkpt lat="49.40323" lon="0.94707">
        <ele>80.800003051758</ele>
        <time>2013-03-24T09:31:30Z</time>
      </trkpt>
      <trkpt lat="49.40328" lon="0.94633">
        <ele>79</ele>
        <time>2013-03-24T09:31:41Z</time>
      </trkpt>
      <trkpt lat="49.40336" lon="0.94553">
        <ele>75</ele>
        <time>2013-03-24T09:31:50Z</time>
      </trkpt>
      <trkpt lat="49.40318" lon="0.94497">
        <ele>72</ele>
        <time>2013-03-24T09:31:58Z</time>
      </trkpt>
      <trkpt lat="49.40286" lon="0.94487">
        <ele>69.800003051758</ele>
        <time>2013-03-24T09:32:04Z</time>
      </trkpt>
      <trkpt lat="49.40272" lon="0.94486">
        <ele>69</ele>
        <time>2013-03-24T09:32:06Z</time>
      </trkpt>
      <trkpt lat="49.40257" lon="0.94485">
        <ele>68</ele>
        <time>2013-03-24T09:32:08Z</time>
      </trkpt>
      <trkpt lat="49.40141" lon="0.9449">
        <ele>65</ele>
        <time>2013-03-24T09:32:17Z</time>
      </trkpt>
      <trkpt lat="49.40127" lon="0.94492">
        <ele>64</ele>
        <time>2013-03-24T09:32:19Z</time>
      </trkpt>
      <trkpt lat="49.40116" lon="0.94493">
        <ele>63</ele>
        <time>2013-03-24T09:32:21Z</time>
      </trkpt>
      <trkpt lat="49.40097" lon="0.94492">
        <ele>61.400001525879</ele>
        <time>2013-03-24T09:32:24Z</time>
      </trkpt>
      <trkpt lat="49.40089" lon="0.94492">
        <ele>60.400001525879</ele>
        <time>2013-03-24T09:32:26Z</time>
      </trkpt>
      <trkpt lat="49.40085" lon="0.94493">
        <ele>59.400001525879</ele>
        <time>2013-03-24T09:32:28Z</time>
      </trkpt>
      <trkpt lat="49.40083" lon="0.94493">
        <ele>58.599998474121</ele>
        <time>2013-03-24T09:32:30Z</time>
      </trkpt>
      <trkpt lat="49.40077" lon="0.94497">
        <ele>58.599998474121</ele>
        <time>2013-03-24T09:32:36Z</time>
      </trkpt>
      <trkpt lat="49.40061" lon="0.94539">
        <ele>63.400001525879</ele>
        <time>2013-03-24T09:33:10Z</time>
      </trkpt>
      <trkpt lat="49.40053" lon="0.94561">
        <ele>65</ele>
        <time>2013-03-24T09:34:46Z</time>
      </trkpt>
      <trkpt lat="49.40054" lon="0.94563">
        <ele>67</ele>
        <time>2013-03-24T09:34:56Z</time>
      </trkpt>
      <trkpt lat="49.40055" lon="0.94567">
        <ele>67</ele>
        <time>2013-03-24T09:35:01Z</time>
      </trkpt>
      <trkpt lat="49.40054" lon="0.9457">
        <ele>67</ele>
        <time>2013-03-24T09:35:24Z</time>
      </trkpt>
      <trkpt lat="49.40039" lon="0.94653">
        <ele>75</ele>
        <time>2013-03-24T09:36:40Z</time>
      </trkpt>
      <trkpt lat="49.40041" lon="0.94663">
        <ele>76.400001525879</ele>
        <time>2013-03-24T09:36:46Z</time>
      </trkpt>
      <trkpt lat="49.40032" lon="0.94747">
        <ele>85.400001525879</ele>
        <time>2013-03-24T09:38:26Z</time>
      </trkpt>
      <trkpt lat="49.3999" lon="0.94706">
        <ele>83.400001525879</ele>
        <time>2013-03-24T09:39:20Z</time>
      </trkpt>
      <trkpt lat="49.39973" lon="0.94698">
        <ele>80.400001525879</ele>
        <time>2013-03-24T09:39:24Z</time>
      </trkpt>
      <trkpt lat="49.39961" lon="0.94701">
        <ele>79</ele>
        <time>2013-03-24T09:39:26Z</time>
      </trkpt>
      <trkpt lat="49.39942" lon="0.9471">
        <ele>77.400001525879</ele>
        <time>2013-03-24T09:39:29Z</time>
      </trkpt>
      <trkpt lat="49.39915" lon="0.94721">
        <ele>74.800003051758</ele>
        <time>2013-03-24T09:39:33Z</time>
      </trkpt>
      <trkpt lat="49.39888" lon="0.94733">
        <ele>72.400001525879</ele>
        <time>2013-03-24T09:39:37Z</time>
      </trkpt>
      <trkpt lat="49.39858" lon="0.9475">
        <ele>68.400001525879</ele>
        <time>2013-03-24T09:39:42Z</time>
      </trkpt>
      <trkpt lat="49.39807" lon="0.9481">
        <ele>63.400001525879</ele>
        <time>2013-03-24T09:39:56Z</time>
      </trkpt>
      <trkpt lat="49.3976" lon="0.94918">
        <ele>61.400001525879</ele>
        <time>2013-03-24T09:40:21Z</time>
      </trkpt>
      <trkpt lat="49.39721" lon="0.94937">
        <ele>61.400001525879</ele>
        <time>2013-03-24T09:40:34Z</time>
      </trkpt>
      <trkpt lat="49.39527" lon="0.94876">
        <ele>64.800003051758</ele>
        <time>2013-03-24T09:41:48Z</time>
      </trkpt>
      <trkpt lat="49.39519" lon="0.94846">
        <ele>67.400001525879</ele>
        <time>2013-03-24T09:42:06Z</time>
      </trkpt>
      <trkpt lat="49.3953" lon="0.9479">
        <ele>79</ele>
        <time>2013-03-24T09:44:19Z</time>
      </trkpt>
      <trkpt lat="49.39528" lon="0.94787">
        <ele>79.800003051758</ele>
        <time>2013-03-24T09:44:21Z</time>
      </trkpt>
      <trkpt lat="49.39526" lon="0.94782">
        <ele>80</ele>
        <time>2013-03-24T09:44:25Z</time>
      </trkpt>
      <trkpt lat="49.3955" lon="0.94711">
        <ele>84</ele>
        <time>2013-03-24T09:45:25Z</time>
      </trkpt>
      <trkpt lat="49.39567" lon="0.9466">
        <ele>84</ele>
        <time>2013-03-24T09:45:58Z</time>
      </trkpt>
      <trkpt lat="49.39342" lon="0.94806">
        <ele>86</ele>
        <time>2013-03-24T09:47:23Z</time>
      </trkpt>
      <trkpt lat="49.39298" lon="0.94551">
        <ele>88.400001525879</ele>
        <time>2013-03-24T09:48:14Z</time>
      </trkpt>
      <trkpt lat="49.39283" lon="0.94457">
        <ele>88.400001525879</ele>
        <time>2013-03-24T09:48:27Z</time>
      </trkpt>
      <trkpt lat="49.39266" lon="0.94402">
        <ele>85.800003051758</ele>
        <time>2013-03-24T09:48:35Z</time>
      </trkpt>
      <trkpt lat="49.38913" lon="0.94507">
        <ele>84</ele>
        <time>2013-03-24T09:50:03Z</time>
      </trkpt>
      <trkpt lat="49.3891" lon="0.94495">
        <ele>84</ele>
        <time>2013-03-24T09:50:07Z</time>
      </trkpt>
      <trkpt lat="49.38907" lon="0.94438">
        <ele>82</ele>
        <time>2013-03-24T09:50:17Z</time>
      </trkpt>
      <trkpt lat="49.38891" lon="0.94418">
        <ele>81.400001525879</ele>
        <time>2013-03-24T09:50:24Z</time>
      </trkpt>
      <trkpt lat="49.38878" lon="0.94407">
        <ele>80</ele>
        <time>2013-03-24T09:50:28Z</time>
      </trkpt>
      <trkpt lat="49.38866" lon="0.94409">
        <ele>78.800003051758</ele>
        <time>2013-03-24T09:50:32Z</time>
      </trkpt>
      <trkpt lat="49.38841" lon="0.94422">
        <ele>78</ele>
        <time>2013-03-24T09:50:37Z</time>
      </trkpt>
      <trkpt lat="49.38731" lon="0.94466">
        <ele>73</ele>
        <time>2013-03-24T09:50:59Z</time>
      </trkpt>
      <trkpt lat="49.38626" lon="0.94335">
        <ele>65.400001525879</ele>
        <time>2013-03-24T09:51:23Z</time>
      </trkpt>
      <trkpt lat="49.38582" lon="0.94241">
        <ele>62.599998474121</ele>
        <time>2013-03-24T09:51:34Z</time>
      </trkpt>
      <trkpt lat="49.38518" lon="0.94168">
        <ele>60.400001525879</ele>
        <time>2013-03-24T09:51:46Z</time>
      </trkpt>
      <trkpt lat="49.38484" lon="0.94151">
        <ele>59.599998474121</ele>
        <time>2013-03-24T09:51:52Z</time>
      </trkpt>
      <trkpt lat="49.38472" lon="0.94146">
        <ele>58.599998474121</ele>
        <time>2013-03-24T09:51:54Z</time>
      </trkpt>
      <trkpt lat="49.38462" lon="0.94141">
        <ele>58</ele>
        <time>2013-03-24T09:51:56Z</time>
      </trkpt>
      <trkpt lat="49.38452" lon="0.94153">
        <ele>58</ele>
        <time>2013-03-24T09:52:00Z</time>
      </trkpt>
      <trkpt lat="49.38401" lon="0.94161">
        <ele>58</ele>
        <time>2013-03-24T09:52:16Z</time>
      </trkpt>
      <trkpt lat="49.38323" lon="0.94145">
        <ele>53</ele>
        <time>2013-03-24T09:52:35Z</time>
      </trkpt>
      <trkpt lat="49.38251" lon="0.94108">
        <ele>49.200000762939</ele>
        <time>2013-03-24T09:52:49Z</time>
      </trkpt>
      <trkpt lat="49.3818" lon="0.94107">
        <ele>49.200000762939</ele>
        <time>2013-03-24T09:53:05Z</time>
      </trkpt>
      <trkpt lat="49.38142" lon="0.94097">
        <ele>49.200000762939</ele>
        <time>2013-03-24T09:53:22Z</time>
      </trkpt>
      <trkpt lat="49.38122" lon="0.94055">
        <ele>49.200000762939</ele>
        <time>2013-03-24T09:53:35Z</time>
      </trkpt>
      <trkpt lat="49.38077" lon="0.93913">
        <ele>47</ele>
        <time>2013-03-24T09:54:04Z</time>
      </trkpt>
      <trkpt lat="49.38072" lon="0.93875">
        <ele>46.400001525879</ele>
        <time>2013-03-24T09:54:11Z</time>
      </trkpt>
      <trkpt lat="49.38072" lon="0.93865">
        <ele>45.400001525879</ele>
        <time>2013-03-24T09:54:13Z</time>
      </trkpt>
      <trkpt lat="49.38076" lon="0.93826">
        <ele>44.599998474121</ele>
        <time>2013-03-24T09:54:20Z</time>
      </trkpt>
      <trkpt lat="49.38051" lon="0.93787">
        <ele>44.599998474121</ele>
        <time>2013-03-24T09:54:30Z</time>
      </trkpt>
      <trkpt lat="49.37859" lon="0.93816">
        <ele>42.400001525879</ele>
        <time>2013-03-24T09:55:30Z</time>
      </trkpt>
      <trkpt lat="49.37816" lon="0.93792">
        <ele>40.200000762939</ele>
        <time>2013-03-24T09:55:38Z</time>
      </trkpt>
      <trkpt lat="49.37771" lon="0.93784">
        <ele>37.400001525879</ele>
        <time>2013-03-24T09:55:45Z</time>
      </trkpt>
      <trkpt lat="49.37728" lon="0.93789">
        <ele>35.599998474121</ele>
        <time>2013-03-24T09:55:52Z</time>
      </trkpt>
      <trkpt lat="49.37434" lon="0.94035">
        <ele>42</ele>
        <time>2013-03-24T09:57:40Z</time>
      </trkpt>
      <trkpt lat="49.37407" lon="0.94109">
        <ele>44.200000762939</ele>
        <time>2013-03-24T09:57:59Z</time>
      </trkpt>
      <trkpt lat="49.37408" lon="0.94275">
        <ele>45.599998474121</ele>
        <time>2013-03-24T09:58:36Z</time>
      </trkpt>
      <trkpt lat="49.37396" lon="0.94388">
        <ele>46.400001525879</ele>
        <time>2013-03-24T09:59:02Z</time>
      </trkpt>
      <trkpt lat="49.37395" lon="0.94395">
        <ele>47.400001525879</ele>
        <time>2013-03-24T09:59:04Z</time>
      </trkpt>
      <trkpt lat="49.37339" lon="0.94808">
        <ele>56.400001525879</ele>
        <time>2013-03-24T10:00:40Z</time>
      </trkpt>
      <trkpt lat="49.37191" lon="0.95743">
        <ele>66.400001525879</ele>
        <time>2013-03-24T10:04:03Z</time>
      </trkpt>
      <trkpt lat="49.37184" lon="0.95765">
        <ele>66.400001525879</ele>
        <time>2013-03-24T10:04:11Z</time>
      </trkpt>
      <trkpt lat="49.37103" lon="0.96096">
        <ele>68.400001525879</ele>
        <time>2013-03-24T10:05:32Z</time>
      </trkpt>
      <trkpt lat="49.37043" lon="0.96429">
        <ele>69</ele>
        <time>2013-03-24T10:06:39Z</time>
      </trkpt>
      <trkpt lat="49.37047" lon="0.96454">
        <ele>70.400001525879</ele>
        <time>2013-03-24T10:06:44Z</time>
      </trkpt>
      <trkpt lat="49.37103" lon="0.96495">
        <ele>70.400001525879</ele>
        <time>2013-03-24T10:07:02Z</time>
      </trkpt>
      <trkpt lat="49.37106" lon="0.96528">
        <ele>70.400001525879</ele>
        <time>2013-03-24T10:07:08Z</time>
      </trkpt>
      <trkpt lat="49.37112" lon="0.96706">
        <ele>70.400001525879</ele>
        <time>2013-03-24T10:07:39Z</time>
      </trkpt>
      <trkpt lat="49.37117" lon="0.96718">
        <ele>70.400001525879</ele>
        <time>2013-03-24T10:07:43Z</time>
      </trkpt>
      <trkpt lat="49.37148" lon="0.96735">
        <ele>68.400001525879</ele>
        <time>2013-03-24T10:07:54Z</time>
      </trkpt>
      <trkpt lat="49.37157" lon="0.96765">
        <ele>68.400001525879</ele>
        <time>2013-03-24T10:08:00Z</time>
      </trkpt>
      <trkpt lat="49.37138" lon="0.97032">
        <ele>68.400001525879</ele>
        <time>2013-03-24T10:08:50Z</time>
      </trkpt>
      <trkpt lat="49.37125" lon="0.97053">
        <ele>66.400001525879</ele>
        <time>2013-03-24T10:08:57Z</time>
      </trkpt>
      <trkpt lat="49.37121" lon="0.97174">
        <ele>64.400001525879</ele>
        <time>2013-03-24T10:09:20Z</time>
      </trkpt>
      <trkpt lat="49.3712" lon="0.97186">
        <ele>63.400001525879</ele>
        <time>2013-03-24T10:09:22Z</time>
      </trkpt>
      <trkpt lat="49.3712" lon="0.972">
        <ele>62.599998474121</ele>
        <time>2013-03-24T10:09:24Z</time>
      </trkpt>
      <trkpt lat="49.37117" lon="0.97222">
        <ele>62.400001525879</ele>
        <time>2013-03-24T10:09:27Z</time>
      </trkpt>
      <trkpt lat="49.37091" lon="0.97239">
        <ele>62.400001525879</ele>
        <time>2013-03-24T10:09:32Z</time>
      </trkpt>
      <trkpt lat="49.36939" lon="0.97254">
        <ele>60</ele>
        <time>2013-03-24T10:10:09Z</time>
      </trkpt>
      <trkpt lat="49.36867" lon="0.973">
        <ele>64</ele>
        <time>2013-03-24T10:10:33Z</time>
      </trkpt>
      <trkpt lat="49.36775" lon="0.97429">
        <ele>64</ele>
        <time>2013-03-24T10:11:09Z</time>
      </trkpt>
      <trkpt lat="49.36736" lon="0.97507">
        <ele>61</ele>
        <time>2013-03-24T10:11:22Z</time>
      </trkpt>
      <trkpt lat="49.36728" lon="0.97522">
        <ele>60</ele>
        <time>2013-03-24T10:11:24Z</time>
      </trkpt>
      <trkpt lat="49.36712" lon="0.97558">
        <ele>59.200000762939</ele>
        <time>2013-03-24T10:11:28Z</time>
      </trkpt>
      <trkpt lat="49.36702" lon="0.97579">
        <ele>58.200000762939</ele>
        <time>2013-03-24T10:11:30Z</time>
      </trkpt>
      <trkpt lat="49.36692" lon="0.97602">
        <ele>57</ele>
        <time>2013-03-24T10:11:32Z</time>
      </trkpt>
      <trkpt lat="49.36681" lon="0.97628">
        <ele>55.599998474121</ele>
        <time>2013-03-24T10:11:34Z</time>
      </trkpt>
      <trkpt lat="49.36669" lon="0.97655">
        <ele>54.400001525879</ele>
        <time>2013-03-24T10:11:36Z</time>
      </trkpt>
      <trkpt lat="49.36656" lon="0.97683">
        <ele>53.200000762939</ele>
        <time>2013-03-24T10:11:38Z</time>
      </trkpt>
      <trkpt lat="49.36642" lon="0.97713">
        <ele>51.400001525879</ele>
        <time>2013-03-24T10:11:40Z</time>
      </trkpt>
      <trkpt lat="49.36627" lon="0.97744">
        <ele>49.599998474121</ele>
        <time>2013-03-24T10:11:42Z</time>
      </trkpt>
      <trkpt lat="49.36594" lon="0.97797">
        <ele>44.400001525879</ele>
        <time>2013-03-24T10:11:46Z</time>
      </trkpt>
      <trkpt lat="49.36528" lon="0.97838">
        <ele>39</ele>
        <time>2013-03-24T10:11:54Z</time>
      </trkpt>
      <trkpt lat="49.36465" lon="0.9791">
        <ele>44</ele>
        <time>2013-03-24T10:12:13Z</time>
      </trkpt>
      <trkpt lat="49.36474" lon="0.97978">
        <ele>48</ele>
        <time>2013-03-24T10:12:30Z</time>
      </trkpt>
      <trkpt lat="49.36504" lon="0.98207">
        <ele>48</ele>
        <time>2013-03-24T10:13:07Z</time>
      </trkpt>
      <trkpt lat="49.36553" lon="0.98326">
        <ele>48</ele>
        <time>2013-03-24T10:13:31Z</time>
      </trkpt>
      <trkpt lat="49.36656" lon="0.98401">
        <ele>48</ele>
        <time>2013-03-24T10:14:11Z</time>
      </trkpt>
      <trkpt lat="49.37046" lon="0.98992">
        <ele>60.400001525879</ele>
        <time>2013-03-24T10:17:30Z</time>
      </trkpt>
      <trkpt lat="49.37191" lon="0.99223">
        <ele>60.400001525879</ele>
        <time>2013-03-24T10:18:33Z</time>
      </trkpt>
      <trkpt lat="49.37217" lon="0.99263">
        <ele>59.599998474121</ele>
        <time>2013-03-24T10:18:40Z</time>
      </trkpt>
      <trkpt lat="49.37227" lon="0.99278">
        <ele>59</ele>
        <time>2013-03-24T10:18:42Z</time>
      </trkpt>
      <trkpt lat="49.37338" lon="0.99444">
        <ele>60.200000762939</ele>
        <time>2013-03-24T10:19:23Z</time>
      </trkpt>
      <trkpt lat="49.3737" lon="0.99467">
        <ele>60.200000762939</ele>
        <time>2013-03-24T10:19:37Z</time>
      </trkpt>
      <trkpt lat="49.37393" lon="0.99448">
        <ele>64.400001525879</ele>
        <time>2013-03-24T10:22:05Z</time>
      </trkpt>
      <trkpt lat="49.375" lon="0.993">
        <ele>76.800003051758</ele>
        <time>2013-03-24T10:24:41Z</time>
      </trkpt>
      <trkpt lat="49.37519" lon="0.99274">
        <ele>77</ele>
        <time>2013-03-24T10:24:55Z</time>
      </trkpt>
      <trkpt lat="49.37538" lon="0.99246">
        <ele>78.800003051758</ele>
        <time>2013-03-24T10:25:08Z</time>
      </trkpt>
      <trkpt lat="49.37583" lon="0.99188">
        <ele>80.800003051758</ele>
        <time>2013-03-24T10:25:32Z</time>
      </trkpt>
      <trkpt lat="49.37608" lon="0.99155">
        <ele>80.800003051758</ele>
        <time>2013-03-24T10:25:43Z</time>
      </trkpt>
      <trkpt lat="49.37721" lon="0.98998">
        <ele>83</ele>
        <time>2013-03-24T10:26:32Z</time>
      </trkpt>
      <trkpt lat="49.37848" lon="0.98821">
        <ele>85</ele>
        <time>2013-03-24T10:27:35Z</time>
      </trkpt>
      <trkpt lat="49.37945" lon="0.98693">
        <ele>91.400001525879</ele>
        <time>2013-03-24T10:28:24Z</time>
      </trkpt>
      <trkpt lat="49.38004" lon="0.98617">
        <ele>91.400001525879</ele>
        <time>2013-03-24T10:28:50Z</time>
      </trkpt>
      <trkpt lat="49.38245" lon="0.98286">
        <ele>93.400001525879</ele>
        <time>2013-03-24T10:30:26Z</time>
      </trkpt>
      <trkpt lat="49.38303" lon="0.98204">
        <ele>93.400001525879</ele>
        <time>2013-03-24T10:30:54Z</time>
      </trkpt>
      <trkpt lat="49.38316" lon="0.98258">
        <ele>93.400001525879</ele>
        <time>2013-03-24T10:31:26Z</time>
      </trkpt>
      <trkpt lat="49.38312" lon="0.98348">
        <ele>95.400001525879</ele>
        <time>2013-03-24T10:31:54Z</time>
      </trkpt>
      <trkpt lat="49.38312" lon="0.98436">
        <ele>95.400001525879</ele>
        <time>2013-03-24T10:32:22Z</time>
      </trkpt>
      <trkpt lat="49.38555" lon="0.98569">
        <ele>109.40000152588</ele>
        <time>2013-03-24T10:35:04Z</time>
      </trkpt>
      <trkpt lat="49.3857" lon="0.98577">
        <ele>109.40000152588</ele>
        <time>2013-03-24T10:35:21Z</time>
      </trkpt>
      <trkpt lat="49.38583" lon="0.98589">
        <ele>111.80000305176</ele>
        <time>2013-03-24T10:37:11Z</time>
      </trkpt>
      <trkpt lat="49.38619" lon="0.98606">
        <ele>113</ele>
        <time>2013-03-24T10:37:30Z</time>
      </trkpt>
      <trkpt lat="49.3863" lon="0.98613">
        <ele>113.80000305176</ele>
        <time>2013-03-24T10:37:36Z</time>
      </trkpt>
      <trkpt lat="49.38656" lon="0.98622">
        <ele>115.80000305176</ele>
        <time>2013-03-24T10:37:51Z</time>
      </trkpt>
      <trkpt lat="49.38723" lon="0.98665">
        <ele>120</ele>
        <time>2013-03-24T10:38:32Z</time>
      </trkpt>
      <trkpt lat="49.38782" lon="0.98698">
        <ele>122</ele>
        <time>2013-03-24T10:39:11Z</time>
      </trkpt>
      <trkpt lat="49.38966" lon="0.98805">
        <ele>126.40000152588</ele>
        <time>2013-03-24T10:40:26Z</time>
      </trkpt>
      <trkpt lat="49.39025" lon="0.98841">
        <ele>126.40000152588</ele>
        <time>2013-03-24T10:40:49Z</time>
      </trkpt>
      <trkpt lat="49.39023" lon="0.98882">
        <ele>126.40000152588</ele>
        <time>2013-03-24T10:41:03Z</time>
      </trkpt>
      <trkpt lat="49.3893" lon="0.99602">
        <ele>126.40000152588</ele>
        <time>2013-03-24T10:43:26Z</time>
      </trkpt>
      <trkpt lat="49.38928" lon="0.99621">
        <ele>124.40000152588</ele>
        <time>2013-03-24T10:43:29Z</time>
      </trkpt>
      <trkpt lat="49.38849" lon="1.00245">
        <ele>118.40000152588</ele>
        <time>2013-03-24T10:50:42Z</time>
      </trkpt>
      <trkpt lat="49.38881" lon="1.0026">
        <ele>122.40000152588</ele>
        <time>2013-03-24T10:53:41Z</time>
      </trkpt>
      <trkpt lat="49.3892" lon="1.00271">
        <ele>122.40000152588</ele>
        <time>2013-03-24T10:54:02Z</time>
      </trkpt>
      <trkpt lat="49.38928" lon="1.00274">
        <ele>122.40000152588</ele>
        <time>2013-03-24T10:54:06Z</time>
      </trkpt>
      <trkpt lat="49.38954" lon="1.00286">
        <ele>122.40000152588</ele>
        <time>2013-03-24T10:54:15Z</time>
      </trkpt>
      <trkpt lat="49.39026" lon="1.00247">
        <ele>122.40000152588</ele>
        <time>2013-03-24T10:54:50Z</time>
      </trkpt>
      <trkpt lat="49.39077" lon="1.00278">
        <ele>122.40000152588</ele>
        <time>2013-03-24T10:55:15Z</time>
      </trkpt>
      <trkpt lat="49.39112" lon="1.00301">
        <ele>122.40000152588</ele>
        <time>2013-03-24T10:55:30Z</time>
      </trkpt>
      <trkpt lat="49.392" lon="1.00242">
        <ele>124.40000152588</ele>
        <time>2013-03-24T10:56:14Z</time>
      </trkpt>
      <trkpt lat="49.39254" lon="1.00278">
        <ele>124.40000152588</ele>
        <time>2013-03-24T10:56:40Z</time>
      </trkpt>
      <trkpt lat="49.39298" lon="1.00356">
        <ele>124.40000152588</ele>
        <time>2013-03-24T10:57:08Z</time>
      </trkpt>
      <trkpt lat="49.39328" lon="1.0039">
        <ele>124.40000152588</ele>
        <time>2013-03-24T10:57:24Z</time>
      </trkpt>
      <trkpt lat="49.39347" lon="1.004">
        <ele>122</ele>
        <time>2013-03-24T10:57:32Z</time>
      </trkpt>
      <trkpt lat="49.39396" lon="1.0025">
        <ele>120</ele>
        <time>2013-03-24T10:58:23Z</time>
      </trkpt>
      <trkpt lat="49.39399" lon="1.00164">
        <ele>124</ele>
        <time>2013-03-24T10:59:19Z</time>
      </trkpt>
      <trkpt lat="49.39399" lon="1.0016">
        <ele>124</ele>
        <time>2013-03-24T10:59:22Z</time>
      </trkpt>
      <trkpt lat="49.39464" lon="1.0011">
        <ele>124</ele>
        <time>2013-03-24T10:59:59Z</time>
      </trkpt>
      <trkpt lat="49.3953" lon="1.00153">
        <ele>122</ele>
        <time>2013-03-24T11:00:33Z</time>
      </trkpt>
      <trkpt lat="49.39584" lon="1.00236">
        <ele>122</ele>
        <time>2013-03-24T11:00:58Z</time>
      </trkpt>
      <trkpt lat="49.39603" lon="1.00287">
        <ele>122</ele>
        <time>2013-03-24T11:01:10Z</time>
      </trkpt>
      <trkpt lat="49.39628" lon="1.00298">
        <ele>122</ele>
        <time>2013-03-24T11:01:29Z</time>
      </trkpt>
      <trkpt lat="49.39679" lon="1.00307">
        <ele>126.40000152588</ele>
        <time>2013-03-24T11:02:03Z</time>
      </trkpt>
      <trkpt lat="49.39733" lon="1.0034">
        <ele>126.40000152588</ele>
        <time>2013-03-24T11:04:17Z</time>
      </trkpt>
      <trkpt lat="49.39761" lon="1.00355">
        <ele>122.80000305176</ele>
        <time>2013-03-24T11:04:27Z</time>
      </trkpt>
      <trkpt lat="49.3979" lon="1.00357">
        <ele>119.40000152588</ele>
        <time>2013-03-24T11:04:34Z</time>
      </trkpt>
      <trkpt lat="49.39808" lon="1.00305">
        <ele>119.40000152588</ele>
        <time>2013-03-24T11:04:46Z</time>
      </trkpt>
      <trkpt lat="49.3979" lon="1.00179">
        <ele>119.40000152588</ele>
        <time>2013-03-24T11:05:21Z</time>
      </trkpt>
      <trkpt lat="49.39816" lon="1.00061">
        <ele>119.40000152588</ele>
        <time>2013-03-24T11:05:52Z</time>
      </trkpt>
      <trkpt lat="49.39805" lon="1.00018">
        <ele>119.40000152588</ele>
        <time>2013-03-24T11:06:12Z</time>
      </trkpt>
      <trkpt lat="49.39802" lon="1">
        <ele>121.40000152588</ele>
        <time>2013-03-24T11:06:21Z</time>
      </trkpt>
      <trkpt lat="49.3982" lon="0.99794">
        <ele>121.40000152588</ele>
        <time>2013-03-24T11:07:43Z</time>
      </trkpt>
      <trkpt lat="49.39821" lon="0.99745">
        <ele>121.40000152588</ele>
        <time>2013-03-24T11:07:55Z</time>
      </trkpt>
      <trkpt lat="49.3982" lon="0.9974">
        <ele>121.40000152588</ele>
        <time>2013-03-24T11:08:05Z</time>
      </trkpt>
      <trkpt lat="49.39822" lon="0.9973">
        <ele>123.80000305176</ele>
        <time>2013-03-24T11:08:20Z</time>
      </trkpt>
      <trkpt lat="49.39822" lon="0.99723">
        <ele>123.80000305176</ele>
        <time>2013-03-24T11:08:23Z</time>
      </trkpt>
      <trkpt lat="49.39865" lon="0.99669">
        <ele>125.80000305176</ele>
        <time>2013-03-24T11:09:01Z</time>
      </trkpt>
      <trkpt lat="49.39871" lon="0.99667">
        <ele>125.80000305176</ele>
        <time>2013-03-24T11:09:04Z</time>
      </trkpt>
      <trkpt lat="49.39895" lon="0.99646">
        <ele>125.80000305176</ele>
        <time>2013-03-24T11:09:22Z</time>
      </trkpt>
      <trkpt lat="49.399" lon="0.99622">
        <ele>126</ele>
        <time>2013-03-24T11:09:34Z</time>
      </trkpt>
      <trkpt lat="49.39899" lon="0.99621">
        <ele>127</ele>
        <time>2013-03-24T11:09:36Z</time>
      </trkpt>
      <trkpt lat="49.39917" lon="0.99599">
        <ele>130</ele>
        <time>2013-03-24T11:09:56Z</time>
      </trkpt>
      <trkpt lat="49.40105" lon="0.99525">
        <ele>130</ele>
        <time>2013-03-24T11:11:19Z</time>
      </trkpt>
      <trkpt lat="49.40116" lon="0.99523">
        <ele>127.40000152588</ele>
        <time>2013-03-24T11:11:23Z</time>
      </trkpt>
      <trkpt lat="49.40125" lon="0.99489">
        <ele>127.40000152588</ele>
        <time>2013-03-24T11:12:16Z</time>
      </trkpt>
      <trkpt lat="49.40137" lon="0.99491">
        <ele>127.40000152588</ele>
        <time>2013-03-24T11:13:28Z</time>
      </trkpt>
      <trkpt lat="49.40157" lon="0.99476">
        <ele>127.40000152588</ele>
        <time>2013-03-24T11:13:40Z</time>
      </trkpt>
      <trkpt lat="49.4016" lon="0.99246">
        <ele>131.80000305176</ele>
        <time>2013-03-24T11:14:39Z</time>
      </trkpt>
      <trkpt lat="49.40169" lon="0.99113">
        <ele>132</ele>
        <time>2013-03-24T11:15:08Z</time>
      </trkpt>
      <trkpt lat="49.40168" lon="0.99094">
        <ele>134</ele>
        <time>2013-03-24T11:15:12Z</time>
      </trkpt>
      <trkpt lat="49.40179" lon="0.9882">
        <ele>134</ele>
        <time>2013-03-24T11:15:59Z</time>
      </trkpt>
      <trkpt lat="49.4019" lon="0.98769">
        <ele>134</ele>
        <time>2013-03-24T11:16:10Z</time>
      </trkpt>
      <trkpt lat="49.40247" lon="0.98804">
        <ele>134</ele>
        <time>2013-03-24T11:16:25Z</time>
      </trkpt>
      <trkpt lat="49.40312" lon="0.98848">
        <ele>136</ele>
        <time>2013-03-24T11:16:40Z</time>
      </trkpt>
      <trkpt lat="49.4036" lon="0.98878">
        <ele>136</ele>
        <time>2013-03-24T11:16:52Z</time>
      </trkpt>
      <trkpt lat="49.40504" lon="0.98969">
        <ele>136</ele>
        <time>2013-03-24T11:17:18Z</time>
      </trkpt>
      <trkpt lat="49.40585" lon="0.99024">
        <ele>136</ele>
        <time>2013-03-24T11:17:30Z</time>
      </trkpt>
      <trkpt lat="49.40871" lon="0.99194">
        <ele>136</ele>
        <time>2013-03-24T11:18:37Z</time>
      </trkpt>
      <trkpt lat="49.40927" lon="0.99176">
        <ele>136</ele>
        <time>2013-03-24T11:18:58Z</time>
      </trkpt>
      <trkpt lat="49.40928" lon="0.99157">
        <ele>136</ele>
        <time>2013-03-24T11:19:11Z</time>
      </trkpt>
      <trkpt lat="49.40928" lon="0.99157">
        <ele>135</ele>
        <time>2013-03-24T11:19:13Z</time>
      </trkpt>
    </trkseg>
  </trk>
</gpx>